createdAt,value
2019-01-14T00:02:22.434Z,94.30
2019-01-14T00:04:55.540Z,94.50
2019-01-14T00:07:19.181Z,95.10
2019-01-14T00:09:46.635Z,95.60
2019-01-14T00:12:15.172Z,96.40
2019-01-14T00:14:42.583Z,96.50
2019-01-14T00:17:09.948Z,96.80
2019-01-14T00:19:37.369Z,97.20
2019-01-14T00:22:05.712Z,97.40
2019-01-14T00:24:33.231Z,97.60
2019-01-14T00:27:00.936Z,98.30
2019-01-14T00:29:28.925Z,98.20
2019-01-14T00:31:56.347Z,98.50
2019-01-14T00:34:24.437Z,98.30
2019-01-14T00:36:51.861Z,98.30
2019-01-14T00:39:19.395Z,98.40
2019-01-14T00:41:46.809Z,98.30
2019-01-14T00:44:14.201Z,98.40
2019-01-14T00:46:42.642Z,98.40
2019-01-14T00:49:10.409Z,98.50
2019-01-14T00:51:37.760Z,98.50
2019-01-14T00:54:05.189Z,98.70
2019-01-14T00:56:32.566Z,98.50
2019-01-14T00:59:00.011Z,98.50
2019-01-14T01:01:27.833Z,98.40
2019-01-14T01:03:55.777Z,98.20
2019-01-14T01:06:24.684Z,98.00
2019-01-14T01:08:52.534Z,98.10
2019-01-14T01:11:19.987Z,98.10
2019-01-14T01:13:47.460Z,98.10
2019-01-14T01:16:14.851Z,98.20
2019-01-14T01:18:42.581Z,98.30
2019-01-14T01:21:09.942Z,98.30
2019-01-14T01:23:37.336Z,98.10
2019-01-14T01:26:04.751Z,98.10
2019-01-14T01:28:32.188Z,97.90
2019-01-14T01:30:59.473Z,98.20
2019-01-14T01:33:26.896Z,97.90
2019-01-14T01:35:54.344Z,97.70
2019-01-14T01:38:21.730Z,97.50
2019-01-14T01:40:49.063Z,97.60
2019-01-14T01:43:16.518Z,97.20
2019-01-14T01:45:44.043Z,97.10
2019-01-14T01:48:11.580Z,97.10
2019-01-14T01:50:39.032Z,96.40
2019-01-14T01:53:06.506Z,96.30
2019-01-14T01:55:34.409Z,96.80
2019-01-14T01:58:02.095Z,96.40
2019-01-14T02:00:29.548Z,96.10
2019-01-14T02:02:57.584Z,95.90
2019-01-14T02:05:25.268Z,95.80
2019-01-14T02:07:52.681Z,95.80
2019-01-14T02:10:21.982Z,96.00
2019-01-14T02:12:49.575Z,95.80
2019-01-14T02:15:17.362Z,95.60
2019-01-14T02:17:44.893Z,95.10
2019-01-14T02:20:13.980Z,95.00
2019-01-14T02:22:41.589Z,95.10
2019-01-14T02:25:09.353Z,95.40
2019-01-14T02:27:36.870Z,95.60
2019-01-14T02:30:06.341Z,95.90
2019-01-14T02:32:33.872Z,96.10
2019-01-14T02:35:01.284Z,95.90
2019-01-14T02:37:28.753Z,96.10
2019-01-14T02:39:56.277Z,96.40
2019-01-14T02:42:23.697Z,96.70
2019-01-14T02:44:51.568Z,96.50
2019-01-14T02:47:31.006Z,96.50
2019-01-14T02:49:58.296Z,95.60
2019-01-14T02:52:25.881Z,95.00
2019-01-14T02:54:53.257Z,94.20
2019-01-14T02:57:20.705Z,94.20
2019-01-14T02:59:48.007Z,93.60
2019-01-14T03:02:15.403Z,92.10
2019-01-14T03:04:42.855Z,92.10
2019-01-14T03:07:10.278Z,92.00
2019-01-14T03:09:37.642Z,92.20
2019-01-14T03:12:05.069Z,91.70
2019-01-14T03:14:32.446Z,91.50
2019-01-14T03:17:00.026Z,90.60
2019-01-14T03:19:27.594Z,91.20
2019-01-14T03:21:55.279Z,91.50
2019-01-14T03:24:22.705Z,91.40
2019-01-14T03:26:50.051Z,91.20
2019-01-14T03:29:17.476Z,91.30
2019-01-14T03:31:45.244Z,91.50
2019-01-14T03:34:12.726Z,92.00
2019-01-14T03:36:40.087Z,92.00
2019-01-14T03:39:07.561Z,91.30
2019-01-14T03:41:35.070Z,90.80
2019-01-14T03:44:03.076Z,91.00
2019-01-14T03:46:30.439Z,90.60
2019-01-14T03:48:57.876Z,91.20
2019-01-14T03:51:25.530Z,90.70
2019-01-14T03:53:53.008Z,90.50
2019-01-14T03:56:20.953Z,90.60
2019-01-14T03:58:48.714Z,91.40
2019-01-14T04:01:16.097Z,91.40
2019-01-14T04:03:43.520Z,91.30
2019-01-14T04:06:10.904Z,91.50
2019-01-14T04:08:38.589Z,91.00
2019-01-14T04:11:06.027Z,91.30
2019-01-14T04:13:33.811Z,91.10
2019-01-14T04:16:01.207Z,91.10
2019-01-14T04:18:28.604Z,91.20
2019-01-14T04:20:56.078Z,91.20
2019-01-14T04:23:23.471Z,91.50
2019-01-14T04:25:50.903Z,91.70
2019-01-14T04:28:18.325Z,91.80
2019-01-14T04:30:46.268Z,91.80
2019-01-14T04:33:13.704Z,91.70
2019-01-14T04:35:41.134Z,91.90
2019-01-14T04:38:08.563Z,92.00
2019-01-14T04:40:36.012Z,91.80
2019-01-14T04:43:03.546Z,91.60
2019-01-14T04:45:30.981Z,91.90
2019-01-14T04:47:58.382Z,91.20
2019-01-14T04:50:25.793Z,92.10
2019-01-14T04:52:53.215Z,91.30
2019-01-14T04:55:20.641Z,91.30
2019-01-14T04:57:48.078Z,91.20
2019-01-14T05:00:17.741Z,90.90
2019-01-14T05:02:45.535Z,91.10
2019-01-14T05:05:13.038Z,91.20
2019-01-14T05:07:40.486Z,90.80
2019-01-14T05:10:08.695Z,91.10
2019-01-14T05:12:36.179Z,90.80
2019-01-14T05:15:04.533Z,90.20
2019-01-14T05:17:32.913Z,89.80
2019-01-14T05:20:00.447Z,89.80
2019-01-14T05:22:27.906Z,90.10
2019-01-14T05:24:55.153Z,89.80
2019-01-14T05:27:22.556Z,89.60
2019-01-14T05:29:50.251Z,89.30
2019-01-14T05:32:17.667Z,89.80
2019-01-14T05:34:45.106Z,89.30
2019-01-14T05:37:12.507Z,89.40
2019-01-14T05:39:39.951Z,89.00
2019-01-14T05:42:07.513Z,88.90
2019-01-14T05:44:34.903Z,89.10
2019-01-14T05:47:02.272Z,88.90
2019-01-14T05:49:29.763Z,88.60
2019-01-14T05:51:57.486Z,89.50
2019-01-14T05:54:24.912Z,89.40
2019-01-14T05:56:52.318Z,89.20
2019-01-14T05:59:19.622Z,88.60
2019-01-14T06:01:47.059Z,88.90
2019-01-14T06:04:14.437Z,88.80
2019-01-14T06:06:42.146Z,88.50
2019-01-14T06:09:09.536Z,88.80
2019-01-14T06:11:36.945Z,89.10
2019-01-14T06:14:04.471Z,89.40
2019-01-14T06:16:31.872Z,89.60
2019-01-14T06:19:00.360Z,89.30
2019-01-14T06:21:28.068Z,90.00
2019-01-14T06:23:55.492Z,89.90
2019-01-14T06:26:22.893Z,89.70
2019-01-14T06:28:50.398Z,89.90
2019-01-14T06:31:17.825Z,90.10
2019-01-14T06:33:45.249Z,89.90
2019-01-14T06:36:12.669Z,89.90
2019-01-14T06:38:40.077Z,90.00
2019-01-14T06:41:07.515Z,89.70
2019-01-14T06:43:34.937Z,89.80
2019-01-14T06:46:02.324Z,89.80
2019-01-14T06:48:31.031Z,90.20
2019-01-14T06:50:58.630Z,89.90
2019-01-14T06:53:26.029Z,89.60
2019-01-14T06:55:53.319Z,89.50
2019-01-14T06:58:20.751Z,89.20
2019-01-14T07:00:48.197Z,89.50
2019-01-14T07:03:16.001Z,89.50
2019-01-14T07:05:43.740Z,89.20
2019-01-14T07:08:11.447Z,89.60
2019-01-14T07:10:38.842Z,89.60
2019-01-14T07:13:06.514Z,89.40
2019-01-14T07:15:33.931Z,89.50
2019-01-14T07:18:01.652Z,89.40
2019-01-14T07:20:29.379Z,89.50
2019-01-14T07:22:56.856Z,89.40
2019-01-14T07:25:24.585Z,89.70
2019-01-14T07:27:52.550Z,89.20
2019-01-14T07:30:20.628Z,89.60
2019-01-14T07:32:48.107Z,89.40
2019-01-14T07:35:15.520Z,89.30
2019-01-14T07:37:43.044Z,89.40
2019-01-14T07:40:11.800Z,89.30
2019-01-14T07:42:39.191Z,89.30
2019-01-14T07:45:07.599Z,89.70
2019-01-14T07:47:35.275Z,89.20
2019-01-14T07:50:03.579Z,89.50
2019-01-14T07:52:30.932Z,89.60
2019-01-14T07:54:58.707Z,89.70
2019-01-14T07:57:26.107Z,89.30
2019-01-14T07:59:53.469Z,89.30
2019-01-14T08:02:21.152Z,89.60
2019-01-14T08:04:48.488Z,89.50
2019-01-14T08:07:15.900Z,89.70
2019-01-14T08:09:43.299Z,89.80
2019-01-14T08:12:10.805Z,89.00
2019-01-14T08:14:38.188Z,89.10
2019-01-14T08:17:05.588Z,88.90
2019-01-14T08:19:32.967Z,88.80
2019-01-14T08:22:00.395Z,88.70
2019-01-14T08:24:27.887Z,88.30
2019-01-14T08:26:55.284Z,88.40
2019-01-14T08:29:22.692Z,88.20
2019-01-14T08:31:50.475Z,87.60
2019-01-14T08:34:17.884Z,87.90
2019-01-14T08:36:45.691Z,87.60
2019-01-14T08:39:13.099Z,87.40
2019-01-14T08:41:46.279Z,87.60
2019-01-14T08:44:14.439Z,87.30
2019-01-14T08:46:42.145Z,88.00
2019-01-14T08:49:09.663Z,87.70
2019-01-14T08:51:37.123Z,88.20
2019-01-14T08:54:04.520Z,87.90
2019-01-14T08:56:31.934Z,88.40
2019-01-14T08:58:59.389Z,88.30
2019-01-14T09:01:27.199Z,88.10
2019-01-14T09:03:55.052Z,88.20
2019-01-14T09:06:22.479Z,88.00
2019-01-14T09:08:49.896Z,88.10
2019-01-14T09:11:17.576Z,87.40
2019-01-14T09:13:45.005Z,88.20
2019-01-14T09:16:12.393Z,88.00
2019-01-14T09:18:40.094Z,87.90
2019-01-14T09:21:07.516Z,87.50
2019-01-14T09:23:35.113Z,87.60
2019-01-14T09:26:02.507Z,87.10
2019-01-14T09:28:30.281Z,87.50
2019-01-14T09:30:57.842Z,87.50
2019-01-14T09:33:25.807Z,87.60
2019-01-14T09:35:53.715Z,87.90
2019-01-14T09:38:21.371Z,88.10
2019-01-14T09:40:48.804Z,87.90
2019-01-14T09:43:16.376Z,87.70
2019-01-14T09:45:43.803Z,88.10
2019-01-14T09:48:11.239Z,88.20
2019-01-14T09:50:38.638Z,87.70
2019-01-14T09:53:06.040Z,87.70
2019-01-14T09:55:33.530Z,87.70
2019-01-14T09:58:00.907Z,87.70
2019-01-14T10:00:28.729Z,88.00
2019-01-14T10:02:56.241Z,87.80
2019-01-14T10:05:23.630Z,87.70
2019-01-14T10:07:51.660Z,87.80
2019-01-14T10:10:20.098Z,88.40
2019-01-14T10:12:47.618Z,88.10
2019-01-14T10:15:18.226Z,88.60
2019-01-14T10:17:47.470Z,88.70
2019-01-14T10:20:15.251Z,88.50
2019-01-14T10:22:42.675Z,88.60
2019-01-14T10:25:10.089Z,88.60
2019-01-14T10:27:38.604Z,88.50
2019-01-14T10:30:09.831Z,88.60
2019-01-14T10:32:37.396Z,89.50
2019-01-14T10:35:06.854Z,89.30
2019-01-14T10:37:34.354Z,90.00
2019-01-14T10:40:01.753Z,90.40
2019-01-14T10:42:29.122Z,89.60
2019-01-14T10:44:56.510Z,88.70
2019-01-14T10:47:23.909Z,89.10
2019-01-14T10:49:51.424Z,88.70
2019-01-14T10:52:19.212Z,88.40
2019-01-14T10:54:46.586Z,88.40
2019-01-14T10:57:13.899Z,87.70
2019-01-14T10:59:41.238Z,88.00
2019-01-14T11:02:08.687Z,88.30
2019-01-14T11:04:35.967Z,87.90
2019-01-14T11:07:03.608Z,88.20
2019-01-14T11:09:30.995Z,88.50
2019-01-14T11:11:58.438Z,88.70
2019-01-14T11:14:25.859Z,88.90
2019-01-14T11:16:53.101Z,88.90
2019-01-14T11:19:20.766Z,89.30
2019-01-14T11:21:48.181Z,89.80
2019-01-14T11:24:15.699Z,89.70
2019-01-14T11:26:43.160Z,90.00
2019-01-14T11:29:10.529Z,90.10
2019-01-14T11:31:37.907Z,90.40
2019-01-14T11:34:05.182Z,90.20
2019-01-14T11:36:32.627Z,90.80
2019-01-14T11:39:05.075Z,90.90
2019-01-14T11:41:31.795Z,90.40
2019-01-14T11:43:59.157Z,90.80
2019-01-14T11:46:26.643Z,90.60
2019-01-14T11:48:54.073Z,90.70
2019-01-14T11:51:21.339Z,90.50
2019-01-14T11:53:48.731Z,90.40
2019-01-14T11:56:16.142Z,90.50
2019-01-14T11:58:43.504Z,90.00
2019-01-14T12:01:10.871Z,89.90
2019-01-14T12:03:39.306Z,90.10
2019-01-14T12:06:06.553Z,90.20
2019-01-14T12:08:33.969Z,90.10
2019-01-14T12:11:01.696Z,89.90
2019-01-14T12:13:29.228Z,90.50
2019-01-14T12:15:56.491Z,90.30
2019-01-14T12:18:24.337Z,90.30
2019-01-14T12:20:51.767Z,90.60
2019-01-14T12:23:19.202Z,90.20
2019-01-14T12:25:46.610Z,90.20
2019-01-14T12:28:14.047Z,90.00
2019-01-14T12:30:41.915Z,90.40
2019-01-14T12:33:09.389Z,90.40
2019-01-14T12:35:36.644Z,90.50
2019-01-14T12:38:04.549Z,90.30
2019-01-14T12:40:31.941Z,90.10
2019-01-14T12:42:59.360Z,90.10
2019-01-14T12:45:27.355Z,90.00
2019-01-14T12:47:54.764Z,89.80
2019-01-14T12:50:22.188Z,90.10
2019-01-14T12:52:49.645Z,89.80
2019-01-14T12:55:17.411Z,89.90
2019-01-14T12:57:44.815Z,89.40
2019-01-14T13:00:17.761Z,89.20
2019-01-14T13:02:45.008Z,89.70
2019-01-14T13:05:13.746Z,88.80
2019-01-14T13:07:41.224Z,88.50
2019-01-14T13:10:10.484Z,88.90
2019-01-14T13:12:38.357Z,88.90
2019-01-14T13:15:09.240Z,87.10
2019-01-14T13:17:37.739Z,88.00
2019-01-14T13:20:05.749Z,87.40
2019-01-14T13:22:33.552Z,87.70
2019-01-14T13:25:00.959Z,87.80
2019-01-14T13:27:28.666Z,88.70
2019-01-14T13:29:55.944Z,89.30
2019-01-14T13:32:23.231Z,87.60
2019-01-14T13:34:50.640Z,88.60
2019-01-14T13:37:18.356Z,90.10
2019-01-14T13:39:46.104Z,90.40
2019-01-14T13:42:13.453Z,91.00
2019-01-14T13:44:40.888Z,91.30
2019-01-14T13:47:08.672Z,91.50
2019-01-14T13:49:35.940Z,91.70
2019-01-14T13:52:03.463Z,92.60
2019-01-14T13:54:30.823Z,93.10
2019-01-14T13:56:58.219Z,93.20
2019-01-14T13:59:25.916Z,93.70
2019-01-14T14:01:53.336Z,94.00
2019-01-14T14:04:20.686Z,93.90
2019-01-14T14:06:47.987Z,93.80
2019-01-14T14:09:15.337Z,93.90
2019-01-14T14:11:42.748Z,94.30
2019-01-14T14:14:10.474Z,94.40
2019-01-14T14:16:37.827Z,94.60
2019-01-14T14:19:05.197Z,94.80
2019-01-14T14:21:32.715Z,94.50
2019-01-14T14:24:00.491Z,94.40
2019-01-14T14:26:27.885Z,95.20
2019-01-14T14:28:55.635Z,95.10
2019-01-14T14:31:23.033Z,94.40
2019-01-14T14:33:50.466Z,94.50
2019-01-14T14:36:17.896Z,94.60
2019-01-14T14:38:45.296Z,94.60
2019-01-14T14:41:13.144Z,94.60
2019-01-14T14:43:40.513Z,94.70
2019-01-14T14:46:07.910Z,94.90
2019-01-14T14:48:35.668Z,94.90
2019-01-14T14:51:03.096Z,94.90
2019-01-14T14:53:30.509Z,94.70
2019-01-14T14:55:58.107Z,94.70
2019-01-14T14:58:25.494Z,95.20
2019-01-14T15:00:52.900Z,94.70
2019-01-14T15:03:20.280Z,94.70
2019-01-14T15:05:47.681Z,94.90
2019-01-14T15:08:15.130Z,95.10
2019-01-14T15:10:42.775Z,94.80
2019-01-14T15:13:10.459Z,94.80
2019-01-14T15:15:37.725Z,94.40
2019-01-14T15:18:05.134Z,94.40
2019-01-14T15:20:32.499Z,94.60
2019-01-14T15:23:00.502Z,94.80
2019-01-14T15:25:27.868Z,94.70
2019-01-14T15:27:55.349Z,94.80
2019-01-14T15:30:25.060Z,95.00
2019-01-14T15:32:52.492Z,95.00
2019-01-14T15:35:19.897Z,94.50
2019-01-14T15:37:47.334Z,94.80
2019-01-14T15:40:15.031Z,94.70
2019-01-14T15:42:43.535Z,95.10
2019-01-14T15:45:13.003Z,95.10
2019-01-14T15:50:29.659Z,95.20
2019-01-14T15:52:57.300Z,95.20
2019-01-14T15:55:27.804Z,95.00
2019-01-14T15:57:55.856Z,95.10
2019-01-14T16:00:24.119Z,94.80
2019-01-14T16:02:51.882Z,94.60
2019-01-14T16:05:19.319Z,94.50
2019-01-14T16:07:46.878Z,94.60
2019-01-14T16:10:16.900Z,94.60
2019-01-14T16:12:44.581Z,94.70
2019-01-14T16:15:12.087Z,94.50
2019-01-14T16:17:39.510Z,94.80
2019-01-14T16:20:09.387Z,94.90
2019-01-14T16:22:38.501Z,94.80
2019-01-14T16:25:06.824Z,94.90
2019-01-14T16:27:34.354Z,94.90
2019-01-14T16:30:02.936Z,95.10
2019-01-14T16:32:32.383Z,95.00
2019-01-14T16:35:01.098Z,95.10
2019-01-14T16:37:28.512Z,95.10
2019-01-14T16:39:56.705Z,95.30
2019-01-14T16:42:24.098Z,95.00
2019-01-14T16:44:51.607Z,95.00
2019-01-14T16:47:18.914Z,94.80
2019-01-14T16:49:46.349Z,94.90
2019-01-14T16:52:13.761Z,94.80
2019-01-14T16:54:41.191Z,94.90
2019-01-14T16:57:21.177Z,94.90
2019-01-14T16:59:50.048Z,94.50
2019-01-14T17:02:17.484Z,94.40
2019-01-14T17:04:45.027Z,94.60
2019-01-14T17:07:12.711Z,94.70
2019-01-14T17:09:40.516Z,94.80
2019-01-14T17:12:07.905Z,94.70
2019-01-14T17:14:39.195Z,94.50
2019-01-14T18:21:05.493Z,95.30
2019-01-14T18:23:37.843Z,94.40
2019-01-14T18:26:05.332Z,94.20
2019-01-14T18:28:32.802Z,94.20
2019-01-14T18:31:00.895Z,94.50
2019-01-14T18:42:17.092Z,93.30
2019-01-14T18:48:26.652Z,93.40
2019-01-14T18:50:54.167Z,93.20
2019-01-14T18:53:21.657Z,92.80
2019-01-14T18:55:49.440Z,92.80
2019-01-14T18:58:16.934Z,92.30
2019-01-14T19:00:44.363Z,92.30
2019-01-14T19:03:11.877Z,92.50
2019-01-14T19:05:39.248Z,92.30
2019-01-14T19:08:06.694Z,92.30
2019-01-14T19:10:34.160Z,92.70
2019-01-14T19:13:02.106Z,92.50
2019-01-14T19:15:29.764Z,92.60
2019-01-14T19:17:57.161Z,92.40
2019-01-14T19:20:26.679Z,92.70
2019-01-14T19:22:54.509Z,92.50
2019-01-14T19:25:21.916Z,92.20
2019-01-14T19:27:49.395Z,92.50
2019-01-14T19:30:17.624Z,92.70
2019-01-14T19:32:45.018Z,92.50
2019-01-14T19:35:12.668Z,92.50
2019-01-14T19:37:40.087Z,92.50
2019-01-14T19:40:10.087Z,92.20
2019-01-14T19:42:37.461Z,92.40
2019-01-14T19:45:05.574Z,92.80
2019-01-14T19:47:33.185Z,92.60
2019-01-14T19:50:00.624Z,92.80
2019-01-14T19:52:28.021Z,92.60
2019-01-14T19:54:56.245Z,92.60
2019-01-14T19:57:24.239Z,92.20
2019-01-14T19:59:52.435Z,92.60
2019-01-14T20:02:20.579Z,92.40
2019-01-14T20:04:52.309Z,92.30
2019-01-14T20:07:20.902Z,91.90
2019-01-14T20:09:49.371Z,92.10
2019-01-14T20:12:18.478Z,92.20
2019-01-14T20:14:46.849Z,92.20
2019-01-14T20:17:16.793Z,92.30
2019-01-14T20:19:44.875Z,92.20
2019-01-14T20:22:15.888Z,92.50
2019-01-14T20:24:44.065Z,91.80
2019-01-14T20:27:13.327Z,92.00
2019-01-14T20:29:41.632Z,92.10
2019-01-14T20:32:10.567Z,92.20
2019-01-14T20:34:39.682Z,91.90
2019-01-14T20:37:09.072Z,92.30
2019-01-14T20:39:37.398Z,91.70
2019-01-14T20:42:06.664Z,92.30
2019-01-14T20:44:35.005Z,92.00
2019-01-14T20:47:05.737Z,91.40
2019-01-14T20:49:33.416Z,91.50
2019-01-14T20:52:00.864Z,91.80
2019-01-14T20:54:28.323Z,91.30
2019-01-14T20:56:55.686Z,91.70
2019-01-14T20:59:23.076Z,91.30
2019-01-14T21:01:51.314Z,91.50
2019-01-14T21:04:19.059Z,91.40
2019-01-14T21:06:46.907Z,91.90
2019-01-14T21:09:14.437Z,91.50
2019-01-14T21:11:42.023Z,91.70
2019-01-14T21:14:09.535Z,92.00
2019-01-14T21:16:37.096Z,91.80
2019-01-14T21:19:04.693Z,92.20
2019-01-14T21:21:32.199Z,92.70
2019-01-14T21:23:59.995Z,93.10
2019-01-14T21:26:27.555Z,93.30
2019-01-14T21:28:55.399Z,93.10
2019-01-14T21:31:22.753Z,93.20
2019-01-14T21:33:50.239Z,93.50
2019-01-14T21:36:17.684Z,93.40
2019-01-14T21:38:45.537Z,93.70
2019-01-14T21:41:13.017Z,93.80
2019-01-14T21:43:40.616Z,93.80
2019-01-14T21:46:08.095Z,94.00
2019-01-14T21:48:35.463Z,94.00
2019-01-14T21:51:03.152Z,94.00
2019-01-14T21:53:30.753Z,94.30
2019-01-14T21:55:58.295Z,94.30
2019-01-14T21:58:25.908Z,94.10
2019-01-14T22:00:53.409Z,94.00
2019-01-14T22:03:22.756Z,94.20
2019-01-14T22:05:50.294Z,94.30
2019-01-14T22:08:18.058Z,94.00
2019-01-14T22:10:46.506Z,94.10
2019-01-14T22:13:14.548Z,94.30
2019-01-14T22:15:42.833Z,94.20
2019-01-14T22:18:11.023Z,94.70
2019-01-14T22:20:38.597Z,94.60
2019-01-14T22:23:06.688Z,94.60
2019-01-14T22:25:34.150Z,94.50
2019-01-14T22:28:01.763Z,94.50
2019-01-14T22:30:31.638Z,94.90
2019-01-14T22:32:59.643Z,95.60
2019-01-14T22:35:27.081Z,94.50
2019-01-14T22:37:54.917Z,94.50
2019-01-14T22:40:22.850Z,94.40
2019-01-14T22:42:50.465Z,94.50
2019-01-14T22:45:19.017Z,94.60
2019-01-14T22:47:46.509Z,95.00
2019-01-14T22:50:14.979Z,95.00
2019-01-14T22:52:42.295Z,94.60
2019-01-14T22:55:09.767Z,94.40
2019-01-14T22:57:37.191Z,94.80
2019-01-14T23:00:56.657Z,94.70
2019-01-14T23:03:24.472Z,95.10
2019-01-14T23:05:51.827Z,94.80
2019-01-14T23:08:19.300Z,95.00
2019-01-14T23:10:46.760Z,94.70
2019-01-14T23:13:14.538Z,94.80
2019-01-14T23:15:41.962Z,94.60
2019-01-14T23:18:10.436Z,94.40
2019-01-14T23:20:39.359Z,94.70
2019-01-14T23:23:06.844Z,94.60
2019-01-14T23:25:34.309Z,94.30
2019-01-14T23:28:03.317Z,94.70
2019-01-14T23:30:30.900Z,94.70
2019-01-14T23:32:58.645Z,95.20
2019-01-14T23:35:26.571Z,94.70
2019-01-14T23:37:54.050Z,94.80
2019-01-14T23:40:21.634Z,95.30
2019-01-14T23:42:49.578Z,95.50
2019-01-14T23:45:17.020Z,95.40
2019-01-14T23:47:44.541Z,95.50
2019-01-14T23:50:12.117Z,95.30
2019-01-14T23:52:39.781Z,95.00
2019-01-14T23:55:07.470Z,94.10
2019-01-14T23:57:34.897Z,95.00
